createdAt,value
2018-03-23T00:00:07.748Z,11.97
2018-03-23T00:02:35.943Z,11.70
2018-03-23T00:05:04.026Z,11.13
2018-03-23T00:07:32.102Z,10.90
2018-03-23T00:10:00.151Z,11.20
2018-03-23T00:12:28.226Z,12.37
2018-03-23T00:14:57.073Z,12.23
2018-03-23T00:17:25.149Z,12.73
2018-03-23T00:19:53.225Z,12.00
2018-03-23T00:22:21.284Z,11.27
2018-03-23T00:24:49.375Z,13.87
2018-03-23T00:27:17.453Z,13.77
2018-03-23T00:29:45.530Z,12.77
2018-03-23T00:32:13.598Z,11.37
2018-03-23T00:34:42.442Z,11.43
2018-03-23T00:37:11.316Z,12.37
2018-03-23T00:39:39.437Z,12.50
2018-03-23T00:42:07.485Z,11.90
2018-03-23T00:44:35.540Z,12.43
2018-03-23T00:47:03.806Z,11.20
2018-03-23T00:49:31.852Z,12.17
2018-03-23T00:51:59.930Z,12.87
2018-03-23T00:54:28.536Z,11.60
2018-03-23T00:56:56.612Z,11.13
2018-03-23T00:59:24.694Z,12.37
2018-03-23T01:01:52.954Z,10.73
2018-03-23T01:04:21.015Z,13.00
2018-03-23T01:06:49.108Z,12.63
2018-03-23T01:09:17.163Z,12.37
2018-03-23T01:11:45.237Z,13.03
2018-03-23T01:14:13.315Z,12.23
2018-03-23T01:16:41.389Z,12.93
2018-03-23T01:19:09.465Z,13.80
2018-03-23T01:21:37.548Z,13.43
2018-03-23T01:24:06.077Z,13.33
2018-03-23T01:26:34.151Z,13.40
2018-03-23T01:29:02.216Z,14.13
2018-03-23T01:31:30.285Z,13.80
2018-03-23T01:33:58.371Z,14.53
2018-03-23T01:36:26.437Z,13.40
2018-03-23T01:38:54.506Z,14.23
2018-03-23T01:41:22.572Z,14.40
2018-03-23T01:43:50.632Z,13.60
2018-03-23T01:46:18.700Z,13.87
2018-03-23T01:48:46.799Z,13.47
2018-03-23T01:51:14.863Z,14.73
2018-03-23T01:53:44.328Z,15.17
2018-03-23T01:56:12.416Z,14.27
2018-03-23T01:58:40.589Z,15.03
2018-03-23T02:01:08.670Z,15.10
2018-03-23T02:03:36.828Z,14.23
2018-03-23T02:06:05.456Z,14.03
2018-03-23T02:08:33.526Z,14.37
2018-03-23T02:11:01.603Z,15.93
2018-03-23T02:13:29.692Z,14.33
2018-03-23T02:15:57.764Z,14.27
2018-03-23T02:18:25.892Z,15.47
2018-03-23T02:20:53.945Z,15.77
2018-03-23T02:23:22.017Z,14.47
2018-03-23T02:25:50.072Z,15.47
2018-03-23T02:28:18.161Z,15.30
2018-03-23T02:30:46.211Z,14.60
2018-03-23T02:33:14.269Z,14.40
2018-03-23T02:35:42.358Z,15.47
2018-03-23T02:38:10.434Z,14.50
2018-03-23T02:40:38.488Z,14.17
2018-03-23T02:43:06.556Z,14.37
2018-03-23T02:45:34.645Z,14.67
2018-03-23T02:48:03.470Z,14.80
2018-03-23T02:50:31.541Z,15.10
2018-03-23T02:53:00.020Z,13.97
2018-03-23T02:55:28.844Z,13.90
2018-03-23T02:57:56.926Z,14.27
2018-03-23T03:00:25.082Z,13.60
2018-03-23T03:02:53.130Z,14.17
2018-03-23T03:05:21.198Z,14.23
2018-03-23T03:07:49.270Z,13.83
2018-03-23T03:10:17.553Z,14.90
2018-03-23T03:12:45.616Z,13.40
2018-03-23T03:15:13.688Z,14.57
2018-03-23T03:17:42.518Z,13.23
2018-03-23T03:20:10.583Z,14.23
2018-03-23T03:22:38.645Z,14.03
2018-03-23T03:25:07.473Z,14.67
2018-03-23T03:27:35.596Z,13.77
2018-03-23T03:30:03.637Z,13.53
2018-03-23T03:32:31.708Z,13.50
2018-03-23T03:34:59.790Z,12.97
2018-03-23T03:37:28.621Z,14.00
2018-03-23T03:39:56.701Z,14.57
2018-03-23T03:42:24.831Z,14.60
2018-03-23T03:44:52.897Z,13.77
2018-03-23T03:47:21.035Z,14.00
2018-03-23T03:49:49.303Z,14.57
2018-03-23T03:52:17.432Z,14.47
2018-03-23T03:54:45.493Z,15.63
2018-03-23T03:57:13.569Z,14.00
2018-03-23T03:59:41.692Z,13.53
2018-03-23T04:02:09.770Z,14.40
2018-03-23T04:04:37.842Z,15.03
2018-03-23T04:07:05.909Z,15.87
2018-03-23T04:09:33.995Z,15.47
2018-03-23T04:12:02.056Z,15.13
2018-03-23T04:14:30.884Z,15.13
2018-03-23T04:16:58.949Z,15.03
2018-03-23T04:19:27.882Z,15.70
2018-03-23T04:21:56.002Z,15.17
2018-03-23T04:24:24.061Z,14.37
2018-03-23T04:26:52.133Z,14.37
2018-03-23T04:29:20.215Z,14.23
2018-03-23T04:31:48.295Z,16.30
2018-03-23T04:34:16.444Z,22.77
2018-03-23T04:36:45.267Z,18.20
2018-03-23T04:39:13.340Z,20.90
2018-03-23T04:41:41.396Z,20.57
2018-03-23T04:44:09.464Z,26.03
2018-03-23T04:46:37.553Z,22.87
2018-03-23T04:49:05.622Z,17.80
2018-03-23T04:51:33.702Z,16.93
2018-03-23T04:54:01.783Z,16.47
2018-03-23T04:56:29.858Z,16.73
2018-03-23T04:58:57.942Z,16.23
2018-03-23T05:01:26.001Z,17.60
2018-03-23T05:03:54.067Z,17.37
2018-03-23T05:06:22.128Z,17.87
2018-03-23T05:08:50.204Z,17.73
2018-03-23T05:11:18.291Z,17.07
2018-03-23T05:13:46.366Z,17.80
2018-03-23T05:16:14.420Z,16.60
2018-03-23T05:18:42.582Z,16.40
2018-03-23T05:21:11.718Z,18.83
2018-03-23T05:23:39.785Z,19.07
2018-03-23T05:26:08.756Z,17.33
2018-03-23T05:28:36.840Z,16.70
2018-03-23T05:31:05.694Z,16.70
2018-03-23T05:33:33.820Z,17.33
2018-03-23T05:36:01.876Z,16.57
2018-03-23T05:38:29.940Z,16.73
2018-03-23T05:40:58.786Z,16.00
2018-03-23T05:43:26.865Z,17.10
2018-03-23T05:45:54.908Z,16.43
2018-03-23T05:48:22.972Z,16.27
2018-03-23T05:50:51.028Z,17.03
2018-03-23T05:53:19.872Z,16.23
2018-03-23T05:55:47.948Z,15.57
2018-03-23T05:58:16.047Z,16.27
2018-03-23T06:00:44.447Z,16.90
2018-03-23T06:03:12.518Z,18.67
2018-03-23T06:05:40.606Z,17.80
2018-03-23T06:08:08.679Z,21.00
2018-03-23T06:10:36.778Z,20.93
2018-03-23T06:13:04.846Z,20.43
2018-03-23T06:15:32.929Z,19.83
2018-03-23T06:18:01.000Z,18.63
2018-03-23T06:20:29.073Z,17.50
2018-03-23T06:22:57.905Z,17.47
2018-03-23T06:25:26.247Z,17.83
2018-03-23T06:27:54.315Z,17.47
2018-03-23T06:30:22.414Z,16.43
2018-03-23T06:32:51.612Z,16.63
2018-03-23T06:35:19.683Z,16.93
2018-03-23T06:37:47.742Z,17.33
2018-03-23T06:40:15.847Z,17.37
2018-03-23T06:42:43.893Z,16.93
2018-03-23T06:45:11.967Z,17.00
2018-03-23T06:47:40.033Z,17.30
2018-03-23T06:50:08.861Z,16.73
2018-03-23T06:52:36.934Z,18.30
2018-03-23T06:55:04.997Z,18.40
2018-03-23T06:57:33.830Z,19.80
2018-03-23T07:00:01.911Z,18.17
2018-03-23T07:02:30.742Z,17.17
2018-03-23T07:04:58.809Z,18.77
2018-03-23T07:07:26.872Z,17.73
2018-03-23T07:09:55.278Z,15.77
2018-03-23T07:12:23.345Z,19.10
2018-03-23T07:14:51.437Z,17.67
2018-03-23T07:17:19.638Z,17.53
2018-03-23T07:19:47.711Z,17.03
2018-03-23T07:22:15.783Z,17.23
2018-03-23T07:24:43.867Z,17.23
2018-03-23T07:27:11.931Z,16.20
2018-03-23T07:29:40.772Z,16.90
2018-03-23T07:32:08.835Z,16.13
2018-03-23T07:34:36.916Z,15.17
2018-03-23T07:37:04.972Z,15.97
2018-03-23T07:39:33.806Z,16.40
2018-03-23T07:42:01.860Z,15.27
2018-03-23T07:44:30.707Z,15.07
2018-03-23T07:46:58.772Z,14.93
2018-03-23T07:49:26.851Z,15.00
2018-03-23T07:51:54.929Z,16.07
2018-03-23T07:54:23.760Z,14.03
2018-03-23T07:56:51.844Z,14.57
2018-03-23T07:59:19.914Z,14.27
2018-03-23T08:01:47.984Z,15.27
2018-03-23T08:04:16.063Z,13.83
2018-03-23T08:06:44.162Z,16.90
2018-03-23T08:09:12.278Z,14.73
2018-03-23T08:11:40.356Z,12.83
2018-03-23T08:14:08.429Z,13.20
2018-03-23T08:16:36.510Z,13.33
2018-03-23T08:19:04.774Z,14.73
2018-03-23T08:21:32.854Z,15.50
2018-03-23T08:24:01.007Z,12.47
2018-03-23T08:26:29.063Z,14.27
2018-03-23T08:28:57.136Z,14.67
2018-03-23T08:31:25.193Z,13.37
2018-03-23T08:33:53.324Z,15.33
2018-03-23T08:36:21.564Z,18.40
2018-03-23T08:38:49.621Z,14.43
2018-03-23T08:41:17.713Z,14.63
2018-03-23T08:43:46.536Z,15.43
2018-03-23T08:46:14.771Z,13.93
2018-03-23T08:48:42.919Z,12.97
2018-03-23T08:51:11.198Z,13.27
2018-03-23T08:53:39.250Z,11.67
2018-03-23T08:56:07.316Z,12.03
2018-03-23T08:58:35.399Z,13.70
2018-03-23T09:01:06.660Z,12.27
2018-03-23T09:03:34.734Z,12.07
2018-03-23T09:06:02.976Z,12.67
2018-03-23T09:08:31.024Z,10.90
2018-03-23T09:10:59.094Z,14.30
2018-03-23T09:13:27.436Z,11.00
2018-03-23T09:15:55.512Z,11.40
2018-03-23T09:18:24.021Z,9.27
2018-03-23T09:20:52.245Z,9.37
2018-03-23T09:23:20.288Z,9.57
2018-03-23T09:25:48.361Z,9.57
2018-03-23T09:28:16.808Z,9.13
2018-03-23T09:30:44.958Z,9.57
2018-03-23T09:33:13.049Z,10.97
2018-03-23T09:35:41.103Z,10.83
2018-03-23T09:38:10.877Z,10.87
2018-03-23T09:40:38.936Z,11.63
2018-03-23T09:43:07.004Z,10.13
2018-03-23T09:45:35.177Z,9.13
2018-03-23T09:48:03.208Z,9.20
2018-03-23T09:50:31.467Z,12.57
2018-03-23T09:52:59.530Z,10.30
2018-03-23T09:55:28.354Z,9.40
2018-03-23T09:57:56.420Z,9.37
2018-03-23T10:00:24.468Z,9.53
2018-03-23T10:02:52.571Z,9.57
2018-03-23T10:05:20.636Z,10.33
2018-03-23T10:07:48.703Z,9.87
2018-03-23T10:10:16.744Z,9.60
2018-03-23T10:12:44.804Z,11.03
2018-03-23T10:15:13.641Z,9.57
2018-03-23T10:17:41.700Z,9.90
2018-03-23T10:20:09.766Z,9.53
2018-03-23T10:22:38.637Z,11.20
2018-03-23T10:25:06.720Z,7.30
2018-03-23T10:27:34.781Z,7.53
2018-03-23T10:30:02.837Z,8.43
2018-03-23T10:32:30.907Z,8.40
2018-03-23T10:34:59.751Z,8.93
2018-03-23T10:37:27.808Z,10.73
2018-03-23T10:39:55.888Z,8.27
2018-03-23T10:42:23.957Z,8.77
2018-03-23T10:44:52.789Z,8.53
2018-03-23T10:47:20.878Z,7.10
2018-03-23T10:49:48.905Z,5.17
2018-03-23T10:52:16.967Z,4.93
2018-03-23T10:54:45.041Z,4.40
2018-03-23T10:57:13.100Z,4.30
2018-03-23T10:59:41.165Z,3.53
2018-03-23T11:02:15.592Z,4.30
2018-03-23T11:04:44.405Z,4.70
2018-03-23T11:07:12.532Z,3.87
2018-03-23T11:09:40.545Z,4.10
2018-03-23T11:12:08.614Z,4.30
2018-03-23T11:14:36.660Z,4.33
2018-03-23T11:17:04.719Z,4.70
2018-03-23T11:19:32.778Z,4.43
2018-03-23T11:22:00.841Z,5.17
2018-03-23T11:24:28.904Z,5.37
2018-03-23T11:26:56.952Z,5.10
2018-03-23T11:29:24.997Z,5.93
2018-03-23T11:31:53.060Z,5.80
2018-03-23T11:34:22.978Z,6.10
2018-03-23T11:36:51.055Z,5.67
2018-03-23T11:39:19.128Z,7.33
2018-03-23T11:41:47.202Z,6.27
2018-03-23T11:44:15.284Z,5.37
2018-03-23T11:46:43.364Z,17.77
2018-03-23T11:49:11.424Z,6.30
2018-03-23T11:51:39.516Z,18.93
2018-03-23T11:54:08.361Z,6.40
2018-03-23T11:56:36.420Z,5.43
2018-03-23T11:59:04.495Z,8.07
2018-03-23T12:01:33.323Z,5.13
2018-03-23T12:04:01.417Z,10.50
2018-03-23T12:06:29.505Z,5.93
2018-03-23T12:08:57.559Z,5.97
2018-03-23T12:11:25.626Z,8.87
2018-03-23T12:13:54.668Z,16.90
2018-03-23T12:16:22.778Z,7.00
2018-03-23T12:18:50.841Z,8.10
2018-03-23T12:21:18.951Z,12.33
2018-03-23T12:23:47.015Z,14.87
2018-03-23T12:26:15.067Z,8.60
2018-03-23T12:28:43.519Z,8.33
2018-03-23T12:31:11.581Z,8.73
2018-03-23T12:33:39.718Z,8.30
2018-03-23T12:36:07.779Z,7.70
2018-03-23T12:38:35.832Z,8.10
2018-03-23T12:41:03.888Z,7.27
2018-03-23T12:43:31.998Z,5.13
2018-03-23T12:46:00.058Z,4.70
2018-03-23T12:48:28.133Z,6.23
2018-03-23T12:50:56.243Z,3.37
2018-03-23T12:53:24.310Z,9.80
2018-03-23T12:55:52.367Z,6.73
2018-03-23T12:58:20.434Z,4.70
2018-03-23T13:00:49.255Z,4.90
2018-03-23T13:03:18.040Z,4.57
2018-03-23T13:05:46.855Z,4.77
2018-03-23T13:08:14.917Z,6.23
2018-03-23T13:10:43.732Z,5.07
2018-03-23T13:13:12.566Z,5.67
2018-03-23T13:15:40.604Z,5.00
2018-03-23T13:18:09.446Z,5.83
2018-03-23T13:20:37.508Z,12.13
2018-03-23T13:23:05.559Z,6.87
2018-03-23T13:25:33.818Z,5.67
2018-03-23T13:28:01.938Z,6.00
2018-03-23T13:30:30.973Z,12.13
2018-03-23T13:32:59.031Z,8.70
2018-03-23T13:35:27.480Z,10.30
2018-03-23T13:37:55.624Z,9.57
2018-03-23T13:40:24.428Z,8.70
2018-03-23T13:42:56.908Z,12.90
2018-03-23T13:45:24.936Z,14.07
2018-03-23T13:47:54.014Z,15.47
2018-03-23T13:50:22.192Z,13.77
2018-03-23T13:52:50.238Z,14.33
2018-03-23T13:55:18.293Z,13.10
2018-03-23T13:57:49.196Z,19.13
2018-03-23T14:00:22.980Z,16.63
2018-03-23T14:02:51.288Z,14.73
2018-03-23T14:05:20.128Z,17.40
2018-03-23T14:07:48.195Z,12.73
2018-03-23T14:10:17.064Z,13.20
2018-03-23T14:12:45.130Z,14.80
2018-03-23T14:15:13.190Z,9.20
2018-03-23T14:17:41.253Z,8.07
2018-03-23T14:20:09.329Z,9.60
2018-03-23T14:22:38.157Z,9.23
2018-03-23T14:25:06.215Z,7.17
2018-03-23T14:27:35.076Z,7.00
2018-03-23T14:30:03.172Z,6.17
2018-03-23T14:32:31.196Z,6.60
2018-03-23T14:34:59.266Z,6.10
2018-03-23T14:37:27.317Z,5.90
2018-03-23T14:39:55.376Z,5.80
2018-03-23T14:42:23.442Z,6.07
2018-03-23T14:44:51.500Z,5.60
2018-03-23T14:47:19.552Z,6.00
2018-03-23T14:49:47.609Z,5.77
2018-03-23T14:52:15.712Z,6.17
2018-03-23T14:54:43.774Z,6.30
2018-03-23T14:57:12.160Z,6.30
2018-03-23T14:59:40.221Z,6.63
2018-03-23T15:02:08.278Z,5.63
2018-03-23T15:04:37.107Z,6.33
2018-03-23T15:07:05.148Z,6.40
2018-03-23T15:09:33.226Z,5.90
2018-03-23T15:12:01.263Z,6.53
2018-03-23T15:14:31.147Z,5.67
2018-03-23T15:16:59.972Z,5.53
2018-03-23T15:19:28.049Z,6.67
2018-03-23T15:21:56.866Z,5.17
2018-03-23T15:24:24.939Z,4.97
2018-03-23T15:26:53.142Z,5.10
2018-03-23T15:29:21.201Z,4.97
2018-03-23T15:31:50.030Z,5.50
2018-03-23T15:34:18.099Z,5.50
2018-03-23T15:36:46.149Z,11.80
2018-03-23T15:39:14.229Z,9.80
2018-03-23T15:41:42.280Z,6.13
2018-03-23T15:44:12.257Z,5.43
2018-03-23T15:46:41.522Z,7.23
2018-03-23T15:49:10.182Z,10.97
2018-03-23T15:51:38.838Z,17.57
2018-03-23T15:54:06.900Z,6.87
2018-03-23T15:56:34.944Z,6.70
2018-03-23T15:59:03.003Z,6.57
2018-03-23T16:01:31.074Z,10.20
2018-03-23T16:03:59.130Z,5.97
2018-03-23T16:06:27.201Z,4.70
2018-03-23T16:08:55.249Z,4.97
2018-03-23T16:11:23.369Z,17.40
2018-03-23T16:13:51.424Z,9.23
2018-03-23T16:16:19.507Z,7.50
2018-03-23T16:18:48.328Z,5.10
2018-03-23T16:21:16.368Z,4.90
2018-03-23T16:23:44.425Z,3.90
2018-03-23T16:26:12.514Z,7.40
2018-03-23T16:28:40.564Z,6.53
2018-03-23T16:31:08.637Z,12.87
2018-03-23T16:33:36.698Z,8.33
2018-03-23T16:36:06.150Z,5.03
2018-03-23T16:38:34.211Z,4.50
2018-03-23T16:41:02.279Z,4.93
2018-03-23T16:43:31.135Z,6.87
2018-03-23T16:45:59.196Z,4.60
2018-03-23T16:48:27.306Z,5.43
2018-03-23T16:50:55.414Z,4.10
2018-03-23T16:53:23.430Z,4.33
2018-03-23T16:56:01.095Z,4.27
2018-03-23T16:58:34.533Z,4.97
2018-03-23T17:01:32.387Z,15.87
2018-03-23T17:04:07.721Z,31.97
2018-03-23T17:09:32.027Z,10.87
2018-03-23T17:12:20.220Z,6.80
2018-03-23T17:17:52.837Z,8.73
2018-03-23T17:20:28.553Z,10.70
2018-03-23T17:23:03.258Z,10.67
2018-03-23T17:28:50.719Z,8.20
2018-03-23T17:31:19.642Z,8.20
2018-03-23T17:33:48.668Z,9.87
2018-03-23T17:36:17.521Z,7.60
2018-03-23T17:38:46.341Z,8.63
2018-03-23T17:41:14.582Z,9.83
2018-03-23T17:43:42.656Z,25.87
2018-03-23T17:46:10.751Z,47.93
2018-03-23T17:48:38.823Z,10.60
2018-03-23T17:51:06.895Z,17.97
2018-03-23T17:53:35.713Z,9.73
2018-03-23T17:56:03.844Z,15.53
2018-03-23T17:58:31.923Z,17.27
2018-03-23T18:00:59.992Z,25.03
2018-03-23T18:03:28.054Z,30.37
2018-03-23T18:05:56.134Z,15.97
2018-03-23T18:08:24.232Z,12.50
2018-03-23T18:10:52.358Z,11.60
2018-03-23T18:13:20.941Z,12.60
2018-03-23T18:15:49.014Z,10.63
2018-03-23T18:18:17.073Z,10.10
2018-03-23T18:20:45.187Z,10.30
2018-03-23T18:23:13.278Z,10.27
2018-03-23T18:25:41.366Z,13.50
2018-03-23T18:28:09.437Z,14.73
2018-03-23T18:30:37.601Z,11.27
2018-03-23T18:33:06.409Z,10.43
2018-03-23T18:35:34.462Z,11.97
2018-03-23T18:38:02.543Z,12.10
2018-03-23T18:40:30.597Z,14.10
2018-03-23T18:42:58.681Z,16.90
2018-03-23T18:45:26.764Z,16.70
2018-03-23T18:47:54.883Z,16.93
2018-03-23T18:50:22.962Z,21.07
2018-03-23T18:52:51.792Z,22.07
2018-03-23T18:55:19.872Z,19.60
2018-03-23T18:57:47.941Z,95.03
2018-03-23T19:00:16.012Z,58.07
2018-03-23T19:02:44.848Z,39.63
2018-03-23T19:05:12.910Z,22.60
2018-03-23T19:07:40.976Z,18.00
2018-03-23T19:10:09.818Z,17.40
2018-03-23T19:12:37.981Z,15.43
2018-03-23T19:15:06.061Z,13.37
2018-03-23T19:17:34.158Z,13.43
2018-03-23T19:20:02.277Z,18.27
2018-03-23T19:22:30.362Z,15.63
2018-03-23T19:24:58.421Z,38.07
2018-03-23T19:27:26.492Z,20.80
2018-03-23T19:29:54.570Z,27.57
2018-03-23T19:32:22.647Z,36.40
2018-03-23T19:34:51.461Z,44.67
2018-03-23T19:37:19.562Z,21.33
2018-03-23T19:39:47.632Z,16.73
2018-03-23T19:42:15.707Z,16.17
2018-03-23T19:44:43.762Z,19.60
2018-03-23T19:47:11.878Z,20.97
2018-03-23T19:49:39.951Z,27.47
2018-03-23T19:52:08.772Z,23.40
2018-03-23T19:54:37.440Z,36.10
2018-03-23T19:57:06.308Z,42.10
2018-03-23T19:59:34.383Z,59.70
2018-03-23T20:02:05.611Z,38.73
2018-03-23T20:04:34.421Z,27.80
2018-03-23T20:07:02.494Z,21.07
2018-03-23T20:09:30.561Z,17.17
2018-03-23T20:11:59.399Z,17.53
2018-03-23T20:14:27.454Z,22.90
2018-03-23T20:16:55.573Z,26.20
2018-03-23T20:19:23.659Z,24.53
2018-03-23T20:21:51.738Z,19.60
2018-03-23T20:24:25.565Z,19.43
2018-03-23T20:26:53.620Z,17.57
2018-03-23T20:29:21.691Z,18.83
2018-03-23T20:31:55.403Z,15.53
2018-03-23T20:34:23.475Z,14.90
2018-03-23T20:36:52.311Z,15.40
2018-03-23T20:39:20.375Z,15.70
2018-03-23T20:41:48.451Z,15.33
2018-03-23T20:44:17.265Z,15.73
2018-03-23T20:46:45.317Z,15.37
2018-03-23T20:49:14.152Z,14.90
2018-03-23T20:51:42.232Z,14.77
2018-03-23T20:54:10.331Z,13.77
2018-03-23T20:56:38.385Z,14.73
2018-03-23T20:59:06.456Z,14.07
2018-03-23T21:01:34.525Z,16.83
2018-03-23T21:04:02.592Z,14.10
2018-03-23T21:06:30.661Z,46.10
2018-03-23T21:08:58.736Z,48.17
2018-03-23T21:11:27.556Z,54.83
2018-03-23T21:13:55.645Z,28.53
2018-03-23T21:16:23.697Z,20.10
2018-03-23T21:18:51.786Z,21.90
2018-03-23T21:21:19.894Z,34.83
2018-03-23T21:23:47.939Z,31.77
2018-03-23T21:26:16.010Z,16.77
2018-03-23T21:28:44.106Z,13.57
2018-03-23T21:31:12.179Z,15.23
2018-03-23T21:33:40.262Z,12.77
2018-03-23T21:36:08.338Z,14.23
2018-03-23T21:38:36.454Z,11.10
2018-03-23T21:41:04.525Z,12.03
2018-03-23T21:43:32.604Z,13.53
2018-03-23T21:46:01.445Z,14.40
2018-03-23T21:48:29.527Z,13.90
2018-03-23T21:50:58.534Z,17.20
2018-03-23T21:53:26.612Z,19.97
2018-03-23T21:55:54.663Z,16.30
2018-03-23T21:58:22.749Z,13.80
2018-03-23T22:00:51.714Z,13.13
2018-03-23T22:03:19.769Z,15.93
2018-03-23T22:05:47.841Z,13.80
2018-03-23T22:08:16.907Z,14.43
2018-03-23T22:10:44.961Z,13.90
2018-03-23T22:13:13.051Z,13.60
2018-03-23T22:15:41.621Z,13.90
2018-03-23T22:18:09.955Z,15.63
2018-03-23T22:20:39.844Z,15.73
2018-03-23T22:23:07.906Z,15.63
2018-03-23T22:25:35.969Z,15.63
2018-03-23T22:28:04.036Z,14.30
2018-03-23T22:30:32.118Z,11.43
2018-03-23T22:33:00.267Z,14.17
2018-03-23T22:35:28.345Z,13.67
2018-03-23T22:37:56.397Z,13.70
2018-03-23T22:40:24.468Z,13.47
2018-03-23T22:42:52.593Z,15.50
2018-03-23T22:45:20.753Z,20.53
2018-03-23T22:47:48.821Z,23.20
2018-03-23T22:50:16.896Z,17.97
2018-03-23T22:52:44.951Z,13.13
2018-03-23T22:55:13.016Z,14.03
2018-03-23T22:57:41.082Z,16.43
2018-03-23T23:00:09.150Z,19.87
2018-03-23T23:02:38.230Z,19.53
2018-03-23T23:05:06.331Z,20.93
2018-03-23T23:07:34.421Z,14.20
2018-03-23T23:10:02.517Z,17.10
2018-03-23T23:12:30.568Z,29.70
2018-03-23T23:14:59.577Z,25.80
2018-03-23T23:17:27.845Z,37.27
2018-03-23T23:19:55.938Z,20.07
2018-03-23T23:22:24.050Z,19.37
2018-03-23T23:24:52.586Z,16.40
2018-03-23T23:27:20.651Z,16.13
2018-03-23T23:29:48.714Z,16.43
2018-03-23T23:32:16.992Z,15.77
2018-03-23T23:34:45.074Z,17.97
2018-03-23T23:37:13.139Z,18.40
2018-03-23T23:39:42.001Z,24.47
2018-03-23T23:42:10.088Z,28.83
2018-03-23T23:44:38.174Z,39.17
2018-03-23T23:47:06.242Z,49.17
2018-03-23T23:49:34.348Z,70.23
2018-03-23T23:52:02.566Z,30.23
2018-03-23T23:54:31.393Z,28.37
2018-03-23T23:56:59.494Z,24.83
2018-03-23T23:59:27.564Z,25.90
